Aérodrome :
LOGIN :

S'inscrire | Disclaimer

   EN    FR    IT 

 










Légende :    VFR   VFR Marginal   IFR   IFR Intensif   IFR Très Intensif
Visi : 
Plafond : 
>= 8 km
>= 3000ft
5 à 8 km
1000 à 3000 ft
1500m à 5 km
500 à 1000 ft
800 à 1500m
200 à 500 ft
< 800m
< 200 ft
Symboles :   Orages  Brouillard  Fortes neiges  Fortes précipitations  Vent > 20 kt
SIGMETs :   Divers  Orages  Givrage  Turbulence  Onde Orograph.  Cendres Volcan.







- Altitude de l'aérodrome : 106 ft
- Code IATA : XDA
- Voir les cartes d'approche


LFBY - Dax Seyresse

DERNIER METAR :
  • 191700Z AUTO 28004KT 260V320 7000 // ////// 17/14 Q1019

METARs EXPIRÉS :
  • 191630Z AUTO 28005KT 250V320 9000 // ////// 19/15 Q1018
  • 191600Z AUTO 27005KT 230V290 9000 // ////// 21/15 Q1018
  • 191530Z AUTO 25006KT 220V280 9000 // ////// 22/15 Q1018
  • 191500Z AUTO 27006KT 9999 // ////// 22/16 Q1018
  • 191430Z AUTO 24004KT 200V280 9000 // ////// 23/16 Q1018

TAF TAF LFBY
Valide du 19 à 09h jusqu'au 19 à 18h UTC


190800Z 1909/1918 18003KT 0300 FG VV///
BECMG 1910/1912 8000 NSW SCT010
Pas de NOTAMs connus pour ce terrain.



MET'MAP, la Météo Aéronautique d'un coup d'oeil ! - Copyright ORBIFLY Décembre 2007 - Disclaimer

ORBIFLY MET'MAP TEAM :

Programmation & Développement : Alexandra Zaïnal
Conception & Développement : Baudouin d'Aumeries
Co-Programmation & Développement : Marc-Olivier Méhu
Soutien technique & logistique : Manuel Goepfert

Contact : metmap@orbifly.com




SOURCES & CREDITS :

   NOAA